createdAt,value
2023-03-27T00:02:38.897Z,54.60
2023-03-27T00:05:27.987Z,55.40
2023-03-27T00:08:16.685Z,54.70
2023-03-27T00:11:07.274Z,55.40
2023-03-27T00:13:56.101Z,60.50
2023-03-27T00:16:46.456Z,61.60
2023-03-27T00:19:36.670Z,64.20
2023-03-27T00:22:25.572Z,64.40
2023-03-27T00:25:14.597Z,66.60
2023-03-27T00:28:03.377Z,65.90
2023-03-27T00:30:52.181Z,69.90
2023-03-27T00:33:41.485Z,70.60
2023-03-27T00:36:31.720Z,69.30
2023-03-27T00:39:20.695Z,68.80
2023-03-27T00:42:13.162Z,68.00
2023-03-27T00:45:02.526Z,70.10
2023-03-27T00:47:55.018Z,66.80
2023-03-27T00:50:46.873Z,67.30
2023-03-27T00:53:37.356Z,67.20
2023-03-27T00:56:26.638Z,68.40
2023-03-27T00:59:19.853Z,70.60
2023-03-27T01:02:10.779Z,71.40
2023-03-27T01:05:01.005Z,74.20
2023-03-27T01:08:01.700Z,74.10
2023-03-27T01:11:04.600Z,76.00
2023-03-27T01:14:06.968Z,76.10
2023-03-27T01:17:08.545Z,75.30
2023-03-27T01:20:30.413Z,76.10
2023-03-27T01:24:02.450Z,78.10
2023-03-27T01:27:01.635Z,78.50
2023-03-27T01:30:09.163Z,78.50
2023-03-27T01:33:36.652Z,79.30
2023-03-27T01:36:55.775Z,79.60
2023-03-27T01:39:53.252Z,79.50
2023-03-27T01:42:49.130Z,79.20
2023-03-27T01:45:46.846Z,76.90
2023-03-27T01:48:41.973Z,77.50
2023-03-27T01:51:36.785Z,78.90
2023-03-27T01:54:28.326Z,79.30
2023-03-27T01:57:23.451Z,79.30
2023-03-27T02:00:19.467Z,78.60
2023-03-27T02:03:14.614Z,79.50
2023-03-27T02:06:07.803Z,75.80
2023-03-27T02:09:01.259Z,76.60
2023-03-27T02:11:55.978Z,77.00
2023-03-27T02:14:52.868Z,78.00
2023-03-27T02:17:45.457Z,78.30
2023-03-27T02:20:35.705Z,79.60
2023-03-27T02:23:24.394Z,79.20
2023-03-27T02:26:14.581Z,79.50
2023-03-27T02:29:20.183Z,80.40
2023-03-27T02:32:21.119Z,80.60
2023-03-27T02:35:24.311Z,80.80
2023-03-27T02:38:20.168Z,80.50
2023-03-27T02:41:17.041Z,80.90
2023-03-27T02:44:12.276Z,79.40
2023-03-27T02:47:07.530Z,80.70
2023-03-27T02:50:01.918Z,80.90
2023-03-27T02:52:54.882Z,80.60
2023-03-27T02:55:47.452Z,80.60
2023-03-27T02:58:40.647Z,81.50
2023-03-27T03:01:32.058Z,80.80
2023-03-27T03:04:25.401Z,81.20
2023-03-27T03:07:16.379Z,81.00
2023-03-27T03:10:07.426Z,80.00
2023-03-27T03:12:57.953Z,79.60
2023-03-27T03:15:49.476Z,80.10
2023-03-27T03:18:39.165Z,80.50
2023-03-27T03:21:27.922Z,81.30
2023-03-27T03:24:19.373Z,79.90
2023-03-27T03:27:08.384Z,79.80
2023-03-27T03:29:57.318Z,80.20
2023-03-27T03:32:47.614Z,79.30
2023-03-27T03:35:36.530Z,80.30
2023-03-27T03:38:26.716Z,81.30
2023-03-27T03:41:16.894Z,81.70
2023-03-27T03:44:05.689Z,82.20
2023-03-27T03:46:54.413Z,81.70
2023-03-27T03:49:43.550Z,82.60
2023-03-27T03:52:32.282Z,81.90
2023-03-27T03:55:20.967Z,82.00
2023-03-27T03:58:11.836Z,82.90
2023-03-27T04:01:02.922Z,83.60
2023-03-27T04:03:52.056Z,83.20
2023-03-27T04:06:43.419Z,83.00
2023-03-27T04:09:32.427Z,83.50
2023-03-27T04:12:22.008Z,82.90
2023-03-27T04:15:12.764Z,82.90
2023-03-27T04:18:01.907Z,83.60
2023-03-27T04:20:50.803Z,84.50
2023-03-27T04:23:39.511Z,84.80
2023-03-27T04:26:28.224Z,85.80
2023-03-27T04:29:16.956Z,86.00
2023-03-27T04:32:07.502Z,85.40
2023-03-27T04:34:56.259Z,84.80
2023-03-27T04:37:45.420Z,85.20
2023-03-27T04:40:34.169Z,85.20
2023-03-27T04:43:26.149Z,85.40
2023-03-27T04:46:14.907Z,86.30
2023-03-27T04:49:06.194Z,85.30
2023-03-27T04:51:55.492Z,85.40
2023-03-27T04:54:44.308Z,85.70
2023-03-27T04:57:33.099Z,85.20
2023-03-27T05:00:23.950Z,85.30
2023-03-27T05:03:13.961Z,85.70
2023-03-27T05:06:05.113Z,84.40
2023-03-27T05:08:54.625Z,84.40
2023-03-27T05:11:44.877Z,84.30
2023-03-27T05:14:33.676Z,84.00
2023-03-27T05:17:25.848Z,84.40
2023-03-27T05:20:16.848Z,84.20
2023-03-27T05:23:07.013Z,83.90
2023-03-27T05:26:00.270Z,85.20
2023-03-27T05:28:51.391Z,86.00
2023-03-27T05:31:40.167Z,87.90
2023-03-27T05:34:30.259Z,88.00
2023-03-27T05:37:19.369Z,88.30
2023-03-27T05:40:11.101Z,89.60
2023-03-27T05:42:59.886Z,90.00
2023-03-27T05:45:48.647Z,89.80
2023-03-27T05:48:38.739Z,89.40
2023-03-27T05:51:27.751Z,90.00
2023-03-27T05:54:16.701Z,90.40
2023-03-27T05:57:08.110Z,90.50
2023-03-27T05:59:57.157Z,89.90
2023-03-27T06:02:46.612Z,89.70
2023-03-27T06:05:35.483Z,90.00
2023-03-27T06:08:24.277Z,89.30
2023-03-27T06:11:13.943Z,89.00
2023-03-27T06:14:04.250Z,86.80
2023-03-27T06:16:53.124Z,79.30
2023-03-27T06:19:41.879Z,83.20
2023-03-27T06:22:30.628Z,75.20
2023-03-27T06:25:20.413Z,70.60
2023-03-27T06:28:09.957Z,61.10
2023-03-27T06:31:00.135Z,50.30
2023-03-27T06:33:49.169Z,49.40
2023-03-27T06:36:37.900Z,43.70
2023-03-27T06:39:27.407Z,38.20
2023-03-27T06:42:16.081Z,36.40
2023-03-27T06:45:05.239Z,30.70
2023-03-27T06:48:15.472Z,31.90
2023-03-27T06:51:06.687Z,32.60
2023-03-27T06:53:55.427Z,41.20
2023-03-27T06:56:44.855Z,42.80
2023-03-27T07:00:39.303Z,39.90
2023-03-27T07:03:29.741Z,43.80
2023-03-27T07:06:19.845Z,41.50
2023-03-27T07:09:09.042Z,35.60
2023-03-27T07:11:57.943Z,30.00
2023-03-27T07:14:46.781Z,32.80
2023-03-27T07:17:48.088Z,40.50
2023-03-27T07:20:39.354Z,48.30
2023-03-27T07:23:28.050Z,51.30
2023-03-27T07:26:17.208Z,54.20
2023-03-27T07:29:10.818Z,54.00
2023-03-27T07:32:04.246Z,55.80
2023-03-27T07:34:55.787Z,59.20
2023-03-27T07:37:45.904Z,62.00
2023-03-27T07:40:39.816Z,66.60
2023-03-27T07:43:28.958Z,67.30
2023-03-27T07:46:17.743Z,69.90
2023-03-27T07:49:06.480Z,68.10
2023-03-27T07:51:55.234Z,65.80
2023-03-27T07:54:45.910Z,66.30
2023-03-27T07:57:45.890Z,62.90
2023-03-27T08:00:43.562Z,63.20
2023-03-27T08:03:41.765Z,67.90
2023-03-27T08:06:30.638Z,59.60
2023-03-27T08:09:19.380Z,57.00
2023-03-27T08:12:09.565Z,58.10
2023-03-27T08:14:58.194Z,54.10
2023-03-27T08:17:47.728Z,48.50
2023-03-27T08:20:36.961Z,34.70
2023-03-27T08:23:27.287Z,37.20
2023-03-27T08:26:16.159Z,26.30
2023-03-27T08:29:07.370Z,24.00
2023-03-27T08:31:56.011Z,12.70
2023-03-27T08:34:44.593Z,14.70
2023-03-27T08:37:33.228Z,17.10
2023-03-27T08:40:26.404Z,14.70
2023-03-27T08:43:19.969Z,12.40
2023-03-27T08:46:17.830Z,15.30
2023-03-27T08:49:09.756Z,16.30
2023-03-27T08:52:00.886Z,18.00
2023-03-27T08:54:58.370Z,9.30
2023-03-27T08:57:50.364Z,8.50
2023-03-27T09:00:41.606Z,2.30
2023-03-27T09:03:41.074Z,8.50
2023-03-27T09:06:38.400Z,13.30
2023-03-27T09:09:47.812Z,17.60
2023-03-27T09:12:55.678Z,44.30
2023-03-27T09:15:59.751Z,64.00
2023-03-27T09:18:58.055Z,77.60
2023-03-27T09:21:51.246Z,87.00
2023-03-27T09:24:43.532Z,90.10
2023-03-27T09:27:35.798Z,93.80
2023-03-27T09:30:28.377Z,96.60
2023-03-27T09:33:17.965Z,97.10
2023-03-27T09:36:08.959Z,91.70
2023-03-27T09:39:05.870Z,79.00
2023-03-27T09:41:58.756Z,63.70
2023-03-27T09:44:51.723Z,50.30
2023-03-27T09:47:46.785Z,33.10
2023-03-27T09:50:41.556Z,19.30
2023-03-27T09:53:31.679Z,9.80
2023-03-27T09:56:20.471Z,8.50
2023-03-27T09:59:21.675Z,14.40
2023-03-27T10:02:18.798Z,12.00
2023-03-27T10:05:17.852Z,7.10
2023-03-27T10:08:31.317Z,1.00
2023-03-27T10:11:26.168Z,1.00
2023-03-27T10:14:19.496Z,1.00
2023-03-27T10:17:08.713Z,10.90
2023-03-27T10:20:05.810Z,15.30
2023-03-27T10:22:56.787Z,15.30
2023-03-27T10:25:51.322Z,1.50
2023-03-27T10:28:46.826Z,1.00
2023-03-27T10:31:38.202Z,1.00
2023-03-27T10:34:33.523Z,1.00
2023-03-27T10:37:28.677Z,1.00
2023-03-27T10:40:19.824Z,1.70
2023-03-27T10:43:12.940Z,1.00
2023-03-27T10:46:07.386Z,1.00
2023-03-27T10:49:04.053Z,1.00
2023-03-27T10:51:58.774Z,1.00
2023-03-27T10:54:54.170Z,1.00
2023-03-27T10:57:47.980Z,1.00
2023-03-27T11:00:41.665Z,4.00
2023-03-27T11:03:36.430Z,31.20
2023-03-27T11:06:30.701Z,52.10
2023-03-27T11:09:24.446Z,65.00
2023-03-27T11:12:15.566Z,70.40
2023-03-27T11:15:11.382Z,59.10
2023-03-27T11:18:06.416Z,54.60
2023-03-27T11:21:01.181Z,43.80
2023-03-27T11:23:54.597Z,45.10
2023-03-27T11:26:50.826Z,46.60
2023-03-27T11:29:47.552Z,37.60
2023-03-27T11:32:44.001Z,30.10
2023-03-27T11:35:37.726Z,31.40
2023-03-27T11:38:33.859Z,41.30
2023-03-27T11:41:22.556Z,56.80
2023-03-27T11:44:11.945Z,76.70
2023-03-27T11:47:12.183Z,89.40
2023-03-27T11:50:22.375Z,93.20
2023-03-27T11:53:40.498Z,96.40
2023-03-27T11:56:38.833Z,95.70
2023-03-27T11:59:54.854Z,85.40
2023-03-27T12:03:24.432Z,74.10
2023-03-27T12:06:19.203Z,65.50
2023-03-27T12:09:32.237Z,54.10
2023-03-27T12:12:39.793Z,48.50
2023-03-27T12:15:48.506Z,46.40
2023-03-27T12:18:59.475Z,38.00
2023-03-27T12:22:07.109Z,32.40
2023-03-27T12:25:27.363Z,24.90
2023-03-27T12:28:41.296Z,12.30
2023-03-27T12:31:47.689Z,5.40
2023-03-27T12:34:50.090Z,3.90
2023-03-27T12:37:44.366Z,5.60
2023-03-27T12:40:40.698Z,1.00
2023-03-27T12:43:33.753Z,1.00
2023-03-27T12:46:40.906Z,1.00
2023-03-27T12:49:48.181Z,1.00
2023-03-27T12:52:40.019Z,1.80
2023-03-27T12:55:37.379Z,1.00
2023-03-27T12:58:37.029Z,1.00
2023-03-27T13:01:55.786Z,1.00
2023-03-27T13:05:26.204Z,1.00
2023-03-27T13:08:42.730Z,1.00
2023-03-27T13:11:46.638Z,1.00
2023-03-27T13:15:13.878Z,1.00
2023-03-27T13:18:27.102Z,1.00
2023-03-27T13:21:23.294Z,1.00
2023-03-27T13:24:29.151Z,1.00
2023-03-27T13:27:33.182Z,1.00
2023-03-27T13:30:41.874Z,1.00
2023-03-27T13:33:45.725Z,1.00
2023-03-27T13:36:34.560Z,1.00
2023-03-27T13:39:24.954Z,1.00
2023-03-27T13:42:17.175Z,1.00
2023-03-27T13:45:16.657Z,1.00
2023-03-27T13:48:36.336Z,1.00
2023-03-27T13:51:40.161Z,1.00
2023-03-27T13:55:06.636Z,1.00
2023-03-27T13:58:08.079Z,1.00
2023-03-27T14:01:23.029Z,1.00
2023-03-27T14:04:39.463Z,1.00
2023-03-27T14:07:55.622Z,1.00
2023-03-27T14:11:04.615Z,1.00
2023-03-27T14:14:06.741Z,1.00
2023-03-27T14:17:22.747Z,1.00
2023-03-27T14:20:20.317Z,1.00
2023-03-27T14:23:16.607Z,1.00
2023-03-27T14:26:09.329Z,1.00
2023-03-27T14:29:00.974Z,6.80
2023-03-27T14:31:50.900Z,32.50
2023-03-27T14:34:54.269Z,51.80
2023-03-27T14:37:45.033Z,66.30
2023-03-27T14:40:36.800Z,76.70
2023-03-27T14:43:28.188Z,82.70
2023-03-27T14:46:18.096Z,80.30
2023-03-27T14:49:07.445Z,73.60
2023-03-27T14:52:04.082Z,69.50
2023-03-27T14:54:57.899Z,66.90
2023-03-27T14:57:48.955Z,63.40
2023-03-27T15:00:39.232Z,58.80
2023-03-27T15:03:35.403Z,41.90
2023-03-27T15:06:26.530Z,30.00
2023-03-27T15:09:19.439Z,19.80
2023-03-27T15:12:11.674Z,27.20
2023-03-27T15:15:00.311Z,32.50
2023-03-27T15:17:50.721Z,35.90
2023-03-27T15:20:41.317Z,39.10
2023-03-27T15:23:55.817Z,43.30
2023-03-27T15:26:47.972Z,40.50
2023-03-27T15:29:40.857Z,39.80
2023-03-27T15:32:42.935Z,37.50
2023-03-27T15:35:36.235Z,40.50
2023-03-27T15:38:30.378Z,35.60
2023-03-27T15:41:39.024Z,35.70
2023-03-27T15:44:33.661Z,33.90
2023-03-27T15:47:26.936Z,34.00
2023-03-27T15:50:22.600Z,35.40
2023-03-27T15:53:11.400Z,42.90
2023-03-27T15:56:01.695Z,54.30
2023-03-27T15:58:53.748Z,61.60
2023-03-27T16:01:52.247Z,66.70
2023-03-27T16:04:48.150Z,77.20
2023-03-27T16:07:46.466Z,82.00
2023-03-27T16:10:35.434Z,78.90
2023-03-27T16:13:29.428Z,80.00
2023-03-27T16:16:23.987Z,78.70
2023-03-27T16:19:15.584Z,73.30
2023-03-27T16:22:04.308Z,63.00
2023-03-27T16:24:53.722Z,60.90
2023-03-27T16:27:48.176Z,61.80
2023-03-27T16:30:41.492Z,61.30
2023-03-27T16:33:30.652Z,54.40
2023-03-27T16:36:25.477Z,53.40
2023-03-27T16:39:14.426Z,55.90
2023-03-27T16:42:03.145Z,57.60
2023-03-27T16:44:52.545Z,51.20
2023-03-27T16:47:41.750Z,47.00
2023-03-27T16:50:31.118Z,47.50
2023-03-27T16:53:21.212Z,45.00
2023-03-27T16:56:10.360Z,40.70
2023-03-27T16:58:59.801Z,42.50
2023-03-27T17:01:48.557Z,49.70
2023-03-27T17:04:37.747Z,62.20
2023-03-27T17:07:27.672Z,76.10
2023-03-27T17:10:18.064Z,83.90
2023-03-27T17:13:07.086Z,88.90
2023-03-27T17:15:56.241Z,91.50
2023-03-27T17:18:45.100Z,87.50
2023-03-27T17:21:33.763Z,83.70
2023-03-27T17:24:22.581Z,80.00
2023-03-27T17:27:12.634Z,74.90
2023-03-27T17:30:01.423Z,73.10
2023-03-27T17:32:50.144Z,71.70
2023-03-27T17:35:40.428Z,71.50
2023-03-27T17:38:29.259Z,71.20
2023-03-27T17:41:18.427Z,71.20
2023-03-27T17:44:08.570Z,72.40
2023-03-27T17:46:57.277Z,74.30
2023-03-27T17:49:45.959Z,76.00
2023-03-27T17:52:35.035Z,76.90
2023-03-27T17:55:23.630Z,77.70
2023-03-27T17:58:12.547Z,78.80
2023-03-27T18:01:12.882Z,80.40
2023-03-27T18:04:01.837Z,81.90
2023-03-27T18:06:50.505Z,83.40
2023-03-27T18:09:39.197Z,83.80
2023-03-27T18:12:27.863Z,85.20
2023-03-27T18:15:16.472Z,85.90
2023-03-27T18:18:06.780Z,86.80
2023-03-27T18:20:56.132Z,88.90
2023-03-27T18:23:46.087Z,90.00
2023-03-27T18:26:36.113Z,90.80
2023-03-27T18:29:25.400Z,91.70
2023-03-27T18:32:13.995Z,90.90
2023-03-27T18:35:04.218Z,91.00
2023-03-27T18:37:52.849Z,90.60
2023-03-27T18:40:41.489Z,90.10
2023-03-27T18:43:30.251Z,88.20
2023-03-27T18:46:19.808Z,87.40
2023-03-27T18:49:21.518Z,86.00
2023-03-27T18:52:15.145Z,84.70
2023-03-27T18:55:03.877Z,85.40
2023-03-27T18:57:52.573Z,85.30
2023-03-27T19:00:43.221Z,85.30
2023-03-27T19:03:35.197Z,85.90
2023-03-27T19:06:25.490Z,85.80
2023-03-27T19:09:16.673Z,85.90
2023-03-27T19:12:05.952Z,86.00
2023-03-27T19:14:54.611Z,86.00
2023-03-27T19:17:43.330Z,85.80
2023-03-27T19:20:32.010Z,85.20
2023-03-27T19:23:20.959Z,84.90
2023-03-27T19:26:12.667Z,84.80
2023-03-27T19:29:01.353Z,84.60
2023-03-27T19:31:49.986Z,84.60
2023-03-27T19:34:42.932Z,84.50
2023-03-27T19:37:31.946Z,84.00
2023-03-27T19:40:20.662Z,83.70
2023-03-27T19:43:10.752Z,82.80
2023-03-27T19:46:14.721Z,82.60
2023-03-27T19:49:04.797Z,82.70
2023-03-27T19:51:53.674Z,83.10
2023-03-27T19:54:42.322Z,83.70
2023-03-27T19:57:31.024Z,84.30
2023-03-27T20:00:21.642Z,84.30
2023-03-27T20:03:13.033Z,85.30
2023-03-27T20:06:07.063Z,85.80
2023-03-27T20:09:00.130Z,85.80
2023-03-27T20:11:48.743Z,84.30
2023-03-27T20:14:37.388Z,83.80
2023-03-27T20:17:28.524Z,83.40
2023-03-27T20:20:17.779Z,82.80
2023-03-27T20:23:06.905Z,82.50
2023-03-27T20:25:56.075Z,82.00
2023-03-27T20:28:44.728Z,82.10
2023-03-27T20:31:33.445Z,83.00
2023-03-27T20:34:24.396Z,82.60
2023-03-27T20:37:13.116Z,82.70
2023-03-27T20:40:09.223Z,82.70
2023-03-27T20:43:05.993Z,82.80
2023-03-27T20:45:59.092Z,82.40
2023-03-27T20:48:54.122Z,82.00
2023-03-27T20:51:45.141Z,82.30
2023-03-27T20:54:34.134Z,82.10
2023-03-27T20:57:22.834Z,82.30
2023-03-27T21:00:14.440Z,82.60
2023-03-27T21:03:03.173Z,83.10
2023-03-27T21:06:25.859Z,83.40
2023-03-27T21:09:15.898Z,83.30
2023-03-27T21:12:04.602Z,83.30
2023-03-27T21:14:53.229Z,83.50
2023-03-27T21:17:42.279Z,83.10
2023-03-27T21:20:32.742Z,83.20
2023-03-27T21:23:23.574Z,82.40
2023-03-27T21:26:13.619Z,82.30
2023-03-27T21:29:03.548Z,82.30
2023-03-27T21:31:52.303Z,82.50
2023-03-27T21:34:41.004Z,82.70
2023-03-27T21:37:29.673Z,83.40
2023-03-27T21:40:18.693Z,82.80
2023-03-27T21:43:09.385Z,83.30
2023-03-27T21:46:00.368Z,83.00
2023-03-27T21:48:50.262Z,81.40
2023-03-27T21:51:38.950Z,79.80
2023-03-27T21:54:27.593Z,78.80
2023-03-27T21:57:16.654Z,78.80
2023-03-27T22:00:08.289Z,78.80
2023-03-27T22:02:57.266Z,78.30
2023-03-27T22:05:54.252Z,78.30
2023-03-27T22:08:49.953Z,77.10
2023-03-27T22:11:38.596Z,77.00
2023-03-27T22:14:27.279Z,76.70
2023-03-27T22:17:17.475Z,76.10
2023-03-27T22:20:06.909Z,74.80
2023-03-27T22:22:55.925Z,74.40
2023-03-27T22:25:44.625Z,74.20
2023-03-27T22:28:33.257Z,73.70
2023-03-27T22:31:22.596Z,73.40
2023-03-27T22:34:12.655Z,73.80
2023-03-27T22:37:01.661Z,72.60
2023-03-27T22:39:50.487Z,72.70
2023-03-27T22:42:39.213Z,72.50
2023-03-27T22:45:27.826Z,73.30
2023-03-27T22:48:16.494Z,74.40
2023-03-27T22:51:07.390Z,75.10
2023-03-27T22:53:56.075Z,75.90
2023-03-27T22:56:44.778Z,76.60
2023-03-27T22:59:33.482Z,76.90
2023-03-27T23:02:22.163Z,77.70
2023-03-27T23:05:11.381Z,77.70
2023-03-27T23:08:01.599Z,77.90
2023-03-27T23:10:56.551Z,77.90
2023-03-27T23:13:47.132Z,78.20
2023-03-27T23:16:36.890Z,77.90
2023-03-27T23:19:25.458Z,78.00
2023-03-27T23:22:14.163Z,78.00
2023-03-27T23:25:04.231Z,77.90
2023-03-27T23:31:28.343Z,78.20
2023-03-27T23:34:16.926Z,78.20
2023-03-27T23:37:06.195Z,77.90
2023-03-27T23:39:54.847Z,77.60
2023-03-27T23:42:44.877Z,78.10
2023-03-27T23:45:33.570Z,78.20
2023-03-27T23:48:22.241Z,78.00
2023-03-27T23:51:14.935Z,78.30
2023-03-27T23:54:03.618Z,78.40
2023-03-27T23:56:52.287Z,78.90
2023-03-27T23:59:42.281Z,78.30
